createdAt,value
2023-04-24T00:00:16.964Z,8.05
2023-04-24T00:03:21.853Z,8.17
2023-04-24T00:06:27.035Z,8.04
2023-04-24T00:09:33.368Z,7.95
2023-04-24T00:12:39.186Z,7.91
2023-04-24T00:15:44.757Z,7.85
2023-04-24T00:18:49.946Z,7.84
2023-04-24T00:21:58.569Z,7.83
2023-04-24T00:25:04.620Z,7.79
2023-04-24T00:28:10.650Z,7.77
2023-04-24T00:31:16.375Z,7.67
2023-04-24T00:34:22.507Z,7.67
2023-04-24T00:37:27.634Z,7.68
2023-04-24T00:40:33.078Z,7.66
2023-04-24T00:43:46.816Z,7.73
2023-04-24T00:46:52.068Z,7.79
2023-04-24T00:49:59.073Z,7.91
2023-04-24T00:53:04.986Z,7.99
2023-04-24T00:56:11.371Z,8.04
2023-04-24T00:59:17.691Z,8.11
2023-04-24T01:02:24.711Z,8.12
2023-04-24T01:05:30.702Z,8.15
2023-04-24T01:08:36.146Z,8.18
2023-04-24T01:11:41.624Z,8.20
2023-04-24T01:14:48.156Z,8.17
2023-04-24T01:17:55.015Z,8.17
2023-04-24T01:21:00.418Z,8.18
2023-04-24T01:24:06.929Z,8.09
2023-04-24T01:27:06.118Z,8.08
2023-04-24T01:30:12.230Z,8.09
2023-04-24T01:33:18.752Z,8.06
2023-04-24T01:36:27.195Z,8.02
2023-04-24T01:39:33.455Z,7.98
2023-04-24T01:42:38.576Z,7.99
2023-04-24T01:45:44.742Z,8.05
2023-04-24T01:48:51.245Z,8.04
2023-04-24T01:51:57.790Z,8.13
2023-04-24T01:55:03.731Z,8.16
2023-04-24T01:58:10.890Z,8.21
2023-04-24T02:01:17.467Z,8.27
2023-04-24T02:04:24.197Z,8.36
2023-04-24T02:07:30.161Z,8.32
2023-04-24T02:10:35.240Z,8.41
2023-04-24T02:13:40.908Z,8.49
2023-04-24T02:16:46.083Z,8.57
2023-04-24T02:19:51.280Z,8.60
2023-04-24T02:22:57.353Z,8.73
2023-04-24T02:26:04.197Z,8.77
2023-04-24T02:29:09.841Z,8.83
2023-04-24T02:32:18.580Z,8.84
2023-04-24T02:35:24.570Z,8.76
2023-04-24T02:38:22.693Z,8.88
2023-04-24T02:41:15.877Z,8.85
2023-04-24T02:44:20.757Z,8.92
2023-04-24T02:47:25.983Z,8.89
2023-04-24T02:50:31.670Z,8.98
2023-04-24T02:53:38.315Z,9.08
2023-04-24T02:56:44.345Z,9.09
2023-04-24T02:59:51.255Z,9.11
2023-04-24T03:02:57.947Z,9.16
2023-04-24T03:06:05.312Z,9.19
2023-04-24T03:09:11.812Z,9.25
2023-04-24T03:12:16.885Z,9.26
2023-04-24T03:15:23.502Z,9.27
2023-04-24T03:18:29.054Z,9.34
2023-04-24T03:21:35.298Z,9.40
2023-04-24T03:24:42.895Z,9.47
2023-04-24T03:27:49.397Z,9.57
2023-04-24T03:31:05.029Z,9.67
2023-04-24T03:34:11.743Z,9.78
2023-04-24T03:37:17.614Z,9.88
2023-04-24T03:40:25.450Z,9.97
2023-04-24T03:43:31.552Z,10.05
2023-04-24T03:46:37.915Z,10.12
2023-04-24T03:49:43.763Z,10.14
2023-04-24T03:52:49.431Z,10.23
2023-04-24T03:55:57.347Z,10.34
2023-04-24T03:59:04.621Z,10.41
2023-04-24T04:02:10.431Z,10.46
2023-04-24T04:05:15.532Z,10.49
2023-04-24T04:08:20.938Z,10.59
2023-04-24T04:11:28.000Z,10.60
2023-04-24T04:14:33.875Z,10.57
2023-04-24T04:17:39.608Z,10.66
2023-04-24T04:20:46.380Z,10.72
2023-04-24T04:23:51.884Z,10.80
2023-04-24T04:27:00.482Z,10.91
2023-04-24T04:30:12.780Z,10.92
2023-04-24T04:33:22.448Z,10.89
2023-04-24T04:36:27.772Z,10.95
2023-04-24T04:39:37.980Z,11.04
2023-04-24T04:42:47.299Z,11.16
2023-04-24T04:45:53.771Z,11.25
2023-04-24T04:49:10.993Z,11.32
2023-04-24T04:52:17.545Z,11.40
2023-04-24T04:55:25.987Z,11.51
2023-04-24T04:58:38.296Z,11.62
2023-04-24T05:01:44.280Z,11.74
2023-04-24T05:04:48.943Z,11.79
2023-04-24T05:07:56.237Z,11.89
2023-04-24T05:11:01.267Z,12.00
2023-04-24T05:14:06.575Z,12.27
2023-04-24T05:17:11.932Z,12.45
2023-04-24T05:20:18.896Z,12.59
2023-04-24T05:23:24.127Z,12.75
2023-04-24T05:26:30.299Z,12.88
2023-04-24T05:29:38.178Z,13.02
2023-04-24T05:32:44.870Z,13.11
2023-04-24T05:35:54.477Z,13.18
2023-04-24T05:38:59.630Z,13.26
2023-04-24T05:42:06.351Z,13.34
2023-04-24T05:45:12.821Z,13.45
2023-04-24T05:48:20.552Z,13.57
2023-04-24T05:51:19.660Z,13.61
2023-04-24T05:54:25.846Z,13.80
2023-04-24T05:57:30.926Z,13.80
2023-04-24T06:00:35.821Z,13.99
2023-04-24T06:03:41.249Z,13.93
2023-04-24T06:06:48.044Z,13.97
2023-04-24T06:09:53.187Z,13.91
2023-04-24T06:12:59.619Z,13.89
2023-04-24T06:16:06.467Z,13.96
2023-04-24T06:19:14.000Z,13.95
2023-04-24T06:22:20.499Z,14.05
2023-04-24T06:25:26.528Z,14.06
2023-04-24T06:28:31.516Z,14.05
2023-04-24T06:31:36.996Z,14.13
2023-04-24T06:34:43.389Z,14.20
2023-04-24T06:37:48.309Z,14.22
2023-04-24T06:40:52.960Z,14.23
2023-04-24T06:43:58.268Z,14.28
2023-04-24T06:47:03.848Z,14.43
2023-04-24T06:50:09.398Z,14.74
2023-04-24T06:53:14.491Z,14.97
2023-04-24T06:56:18.633Z,15.33
2023-04-24T06:59:24.135Z,15.75
2023-04-24T07:02:29.428Z,16.16
2023-04-24T07:05:29.380Z,16.58
2023-04-24T07:08:36.429Z,16.92
2023-04-24T07:11:41.745Z,17.13
2023-04-24T07:14:47.173Z,17.29
2023-04-24T07:17:53.603Z,17.41
2023-04-24T07:21:01.220Z,17.58
2023-04-24T07:24:07.340Z,17.59
2023-04-24T07:27:13.101Z,17.66
2023-04-24T07:30:19.913Z,17.79
2023-04-24T07:33:24.937Z,17.86
2023-04-24T07:36:29.856Z,17.84
2023-04-24T07:39:36.789Z,17.72
2023-04-24T07:42:44.596Z,17.61
2023-04-24T07:45:51.313Z,17.53
2023-04-24T07:48:58.571Z,17.51
2023-04-24T07:51:58.128Z,17.52
2023-04-24T07:55:06.035Z,17.51
2023-04-24T07:58:11.400Z,17.48
2023-04-24T08:01:17.880Z,17.53
2023-04-24T08:04:26.109Z,17.53
2023-04-24T08:07:32.860Z,17.37
2023-04-24T08:10:39.333Z,17.32
2023-04-24T08:13:44.403Z,17.25
2023-04-24T08:16:50.195Z,17.25
2023-04-24T08:19:59.420Z,17.22
2023-04-24T08:23:05.550Z,17.18
2023-04-24T08:26:11.054Z,17.20
2023-04-24T08:29:16.399Z,17.20
2023-04-24T08:32:22.391Z,17.20
2023-04-24T08:35:28.859Z,17.22
2023-04-24T08:38:33.849Z,17.24
2023-04-24T08:41:39.814Z,17.32
2023-04-24T08:44:45.032Z,17.46
2023-04-24T08:47:51.578Z,17.58
2023-04-24T08:50:57.780Z,17.60
2023-04-24T08:54:02.911Z,17.58
2023-04-24T08:57:08.990Z,17.63
2023-04-24T09:00:14.654Z,17.84
2023-04-24T09:03:20.554Z,17.92
2023-04-24T09:06:26.233Z,18.05
2023-04-24T09:09:31.786Z,18.19
2023-04-24T09:12:37.426Z,18.25
2023-04-24T09:15:36.413Z,18.29
2023-04-24T09:18:42.725Z,18.36
2023-04-24T09:21:51.577Z,18.44
2023-04-24T09:24:57.196Z,18.56
2023-04-24T09:28:03.339Z,18.68
2023-04-24T09:31:30.001Z,18.82
2023-04-24T09:34:33.779Z,19.01
2023-04-24T09:37:26.729Z,19.02
2023-04-24T09:40:34.229Z,19.00
2023-04-24T09:43:38.544Z,18.90
2023-04-24T09:46:48.307Z,18.61
2023-04-24T09:49:54.774Z,18.51
2023-04-24T09:53:03.325Z,18.58
2023-04-24T09:56:09.899Z,18.71
2023-04-24T09:59:22.214Z,18.87
2023-04-24T10:02:34.718Z,18.89
2023-04-24T10:05:43.065Z,18.83
2023-04-24T10:08:50.558Z,18.74
2023-04-24T10:12:03.417Z,18.85
2023-04-24T10:15:10.090Z,19.12
2023-04-24T10:18:16.098Z,19.04
2023-04-24T10:21:21.628Z,19.19
2023-04-24T10:24:28.834Z,19.07
2023-04-24T10:27:34.222Z,18.90
2023-04-24T10:30:41.900Z,18.69
2023-04-24T10:33:49.690Z,18.74
2023-04-24T10:36:58.536Z,18.84
2023-04-24T10:40:04.954Z,18.96
2023-04-24T10:43:10.569Z,19.08
2023-04-24T10:46:19.830Z,19.05
2023-04-24T10:49:25.508Z,19.03
2023-04-24T10:52:29.946Z,18.92
2023-04-24T10:55:57.443Z,18.72
2023-04-24T10:59:06.590Z,18.65
2023-04-24T11:02:11.736Z,18.60
2023-04-24T11:05:21.385Z,18.46
2023-04-24T11:08:28.148Z,18.28
2023-04-24T11:11:33.764Z,18.28
2023-04-24T11:14:39.228Z,18.19
2023-04-24T11:17:52.075Z,18.25
2023-04-24T11:21:00.727Z,18.31
2023-04-24T11:24:06.989Z,18.34
2023-04-24T11:27:22.481Z,18.42
2023-04-24T11:30:27.728Z,18.51
2023-04-24T11:33:34.989Z,18.55
2023-04-24T11:36:41.062Z,18.54
2023-04-24T11:39:42.677Z,18.50
2023-04-24T11:42:53.552Z,18.61
2023-04-24T11:46:06.386Z,18.80
2023-04-24T11:49:13.793Z,18.96
2023-04-24T11:52:20.542Z,18.98
2023-04-24T11:55:36.933Z,18.97
2023-04-24T11:58:41.850Z,18.95
2023-04-24T12:02:02.147Z,18.90
2023-04-24T12:05:01.651Z,18.87
2023-04-24T12:08:07.370Z,18.85
2023-04-24T12:11:14.091Z,18.79
2023-04-24T12:14:29.118Z,18.75
2023-04-24T12:17:44.598Z,18.72
2023-04-24T12:20:52.160Z,18.58
2023-04-24T12:24:02.115Z,18.56
2023-04-24T12:27:09.180Z,18.52
2023-04-24T12:30:15.648Z,18.47
2023-04-24T12:33:21.582Z,18.43
2023-04-24T12:36:26.489Z,18.40
2023-04-24T12:39:36.031Z,18.45
2023-04-24T12:42:46.096Z,18.57
2023-04-24T12:45:50.854Z,18.56
2023-04-24T12:48:56.550Z,18.67
2023-04-24T12:52:01.967Z,18.62
2023-04-24T12:55:10.808Z,18.49
2023-04-24T12:58:16.199Z,18.35
2023-04-24T13:01:22.003Z,18.25
2023-04-24T13:04:28.626Z,18.23
2023-04-24T13:07:34.522Z,18.21
2023-04-24T13:10:40.654Z,18.21
2023-04-24T13:13:46.090Z,18.25
2023-04-24T13:16:51.644Z,18.26
2023-04-24T13:19:58.279Z,18.25
2023-04-24T13:23:03.584Z,18.28
2023-04-24T13:26:09.204Z,18.25
2023-04-24T13:29:15.010Z,18.27
2023-04-24T13:32:13.955Z,18.29
2023-04-24T13:35:20.104Z,18.29
2023-04-24T13:38:24.868Z,18.25
2023-04-24T13:41:30.307Z,18.14
2023-04-24T13:44:36.051Z,18.08
2023-04-24T13:47:41.968Z,18.01
2023-04-24T13:50:47.747Z,17.99
2023-04-24T13:53:53.748Z,18.03
2023-04-24T13:56:59.397Z,17.95
2023-04-24T14:00:07.574Z,17.90
2023-04-24T14:03:12.484Z,17.84
2023-04-24T14:06:18.828Z,17.72
2023-04-24T14:09:23.706Z,17.72
2023-04-24T14:12:28.794Z,17.66
2023-04-24T14:15:34.291Z,17.62
2023-04-24T14:18:39.824Z,17.66
2023-04-24T14:21:45.635Z,17.62
2023-04-24T14:24:52.633Z,17.62
2023-04-24T14:27:59.002Z,17.60
2023-04-24T14:31:03.907Z,17.53
2023-04-24T14:34:10.680Z,17.40
2023-04-24T14:37:15.858Z,17.50
2023-04-24T14:40:48.362Z,17.36
2023-04-24T14:43:31.319Z,17.27
2023-04-24T14:46:38.139Z,17.16
2023-04-24T14:49:44.343Z,17.14
2023-04-24T14:52:50.142Z,17.13
2023-04-24T14:55:55.763Z,17.11
2023-04-24T14:59:00.725Z,17.09
2023-04-24T15:02:16.067Z,17.05
2023-04-24T15:05:07.153Z,16.99
2023-04-24T15:07:59.982Z,17.02
2023-04-24T15:11:05.582Z,16.95
2023-04-24T15:14:12.213Z,16.89
2023-04-24T15:17:18.220Z,16.81
2023-04-24T15:20:24.024Z,16.76
2023-04-24T15:23:29.607Z,16.72
2023-04-24T15:26:35.754Z,16.70
2023-04-24T15:29:40.749Z,16.60
2023-04-24T15:32:46.834Z,16.55
2023-04-24T15:35:53.066Z,16.50
2023-04-24T15:38:59.005Z,16.46
2023-04-24T15:42:05.621Z,16.43
2023-04-24T15:45:12.204Z,16.41
2023-04-24T15:48:18.176Z,16.36
2023-04-24T15:51:23.307Z,16.29
2023-04-24T15:54:28.282Z,16.29
2023-04-24T15:57:32.795Z,16.22
2023-04-24T16:00:40.436Z,16.18
2023-04-24T16:03:47.108Z,16.09
2023-04-24T16:06:54.132Z,16.02
2023-04-24T16:10:01.475Z,15.91
2023-04-24T16:13:11.470Z,15.82
2023-04-24T16:16:17.290Z,15.77
2023-04-24T16:19:22.910Z,15.70
2023-04-24T16:22:29.382Z,15.60
2023-04-24T16:25:35.990Z,15.50
2023-04-24T16:28:41.208Z,15.36
2023-04-24T16:31:45.934Z,15.26
2023-04-24T16:34:51.456Z,15.21
2023-04-24T16:37:57.255Z,15.15
2023-04-24T16:41:03.581Z,15.11
2023-04-24T16:44:10.262Z,15.06
2023-04-24T16:47:16.509Z,15.08
2023-04-24T16:50:22.929Z,14.98
2023-04-24T16:53:28.917Z,14.92
2023-04-24T16:56:26.551Z,14.83
2023-04-24T16:59:18.687Z,14.73
2023-04-24T17:02:18.380Z,14.71
2023-04-24T17:05:26.196Z,14.63
2023-04-24T17:08:32.472Z,14.55
2023-04-24T17:11:37.729Z,14.44
2023-04-24T17:14:44.110Z,14.40
2023-04-24T17:17:50.670Z,14.32
2023-04-24T17:20:57.025Z,14.22
2023-04-24T17:24:03.498Z,14.13
2023-04-24T17:27:15.081Z,14.07
2023-04-24T17:30:17.395Z,14.01
2023-04-24T17:33:23.179Z,13.94
2023-04-24T17:36:28.152Z,13.90
2023-04-24T17:39:36.323Z,13.79
2023-04-24T17:42:44.947Z,13.83
2023-04-24T17:45:50.833Z,13.82
2023-04-24T17:48:56.321Z,13.96
2023-04-24T17:52:01.917Z,13.94
2023-04-24T17:55:07.427Z,13.92
2023-04-24T17:58:13.660Z,13.85
2023-04-24T18:01:20.746Z,13.83
2023-04-24T18:04:26.286Z,13.85
2023-04-24T18:07:32.546Z,13.78
2023-04-24T18:10:38.961Z,13.74
2023-04-24T18:13:45.031Z,13.73
2023-04-24T18:16:50.175Z,13.65
2023-04-24T18:19:55.474Z,13.63
2023-04-24T18:23:03.362Z,13.58
2023-04-24T18:26:08.816Z,13.60
2023-04-24T18:29:15.228Z,13.55
2023-04-24T18:32:22.123Z,13.53
2023-04-24T18:35:27.949Z,13.53
2023-04-24T18:38:33.554Z,13.47
2023-04-24T18:41:39.221Z,13.54
2023-04-24T18:44:50.081Z,13.51
2023-04-24T18:47:57.141Z,13.47
2023-04-24T18:51:03.914Z,13.44
2023-04-24T18:54:09.124Z,13.41
2023-04-24T18:57:14.710Z,13.18
2023-04-24T19:00:21.120Z,13.09
2023-04-24T19:03:27.037Z,13.05
2023-04-24T19:06:32.653Z,13.11
2023-04-24T19:09:37.777Z,13.11
2023-04-24T19:12:37.869Z,13.06
2023-04-24T19:15:43.594Z,13.01
2023-04-24T19:18:49.630Z,13.03
2023-04-24T19:21:56.968Z,12.97
2023-04-24T19:25:02.593Z,12.96
2023-04-24T19:28:08.109Z,12.87
2023-04-24T19:31:13.784Z,12.85
2023-04-24T19:34:19.716Z,12.79
2023-04-24T19:37:25.928Z,12.72
2023-04-24T19:40:31.288Z,12.67
2023-04-24T19:43:38.042Z,12.68
2023-04-24T19:46:43.469Z,12.73
2023-04-24T19:49:48.229Z,12.71
2023-04-24T19:52:54.940Z,12.69
2023-04-24T19:56:00.445Z,12.69
2023-04-24T19:59:05.764Z,12.70
2023-04-24T20:02:11.552Z,12.72
2023-04-24T20:05:17.637Z,12.64
2023-04-24T20:08:24.978Z,12.62
2023-04-24T20:11:31.350Z,12.68
2023-04-24T20:14:38.725Z,12.65
2023-04-24T20:17:44.470Z,12.65
2023-04-24T20:20:50.984Z,12.61
2023-04-24T20:23:59.387Z,12.64
2023-04-24T20:26:57.700Z,12.63
2023-04-24T20:30:03.747Z,12.63
2023-04-24T20:33:08.734Z,12.62
2023-04-24T20:36:13.867Z,12.58
2023-04-24T20:39:20.727Z,12.71
2023-04-24T20:42:27.223Z,12.57
2023-04-24T20:45:33.442Z,12.55
2023-04-24T20:48:39.126Z,12.66
2023-04-24T20:51:45.104Z,12.69
2023-04-24T20:54:51.108Z,12.69
2023-04-24T20:57:50.657Z,12.72
2023-04-24T21:00:57.139Z,12.57
2023-04-24T21:04:03.204Z,12.60
2023-04-24T21:07:09.478Z,12.65
2023-04-24T21:10:09.511Z,12.61
2023-04-24T21:13:15.751Z,12.61
2023-04-24T21:16:22.032Z,12.64
2023-04-24T21:19:28.535Z,12.72
2023-04-24T21:22:33.973Z,12.65
2023-04-24T21:25:39.677Z,12.67
2023-04-24T21:28:45.705Z,12.69
2023-04-24T21:31:51.122Z,12.70
2023-04-24T21:34:57.079Z,12.63
2023-04-24T21:38:02.623Z,12.68
2023-04-24T21:41:09.810Z,12.78
2023-04-24T21:44:15.356Z,12.65
2023-04-24T21:47:21.767Z,12.70
2023-04-24T21:50:27.644Z,12.69
2023-04-24T21:53:32.701Z,12.71
2023-04-24T21:56:38.408Z,12.66
2023-04-24T21:59:44.051Z,12.52
2023-04-24T22:02:50.381Z,12.56
2023-04-24T22:05:55.727Z,12.40
2023-04-24T22:09:02.219Z,12.33
2023-04-24T22:12:07.788Z,12.23
2023-04-24T22:15:13.533Z,12.18
2023-04-24T22:18:20.686Z,12.17
2023-04-24T22:21:26.577Z,12.11
2023-04-24T22:24:33.924Z,12.08
2023-04-24T22:27:40.298Z,11.99
2023-04-24T22:30:45.844Z,11.94
2023-04-24T22:33:51.342Z,11.92
2023-04-24T22:36:57.219Z,11.84
2023-04-24T22:40:02.976Z,11.80
2023-04-24T22:43:02.754Z,11.78
2023-04-24T22:46:07.659Z,11.68
2023-04-24T22:49:12.604Z,11.65
2023-04-24T22:52:20.435Z,11.61
2023-04-24T22:55:26.420Z,11.56
2023-04-24T22:58:33.402Z,11.50
2023-04-24T23:01:38.670Z,11.44
2023-04-24T23:04:43.820Z,11.42
2023-04-24T23:07:49.994Z,11.39
2023-04-24T23:10:56.990Z,11.27
2023-04-24T23:13:55.976Z,11.26
2023-04-24T23:17:01.474Z,11.16
2023-04-24T23:20:07.143Z,11.11
2023-04-24T23:23:13.880Z,10.99
2023-04-24T23:26:18.752Z,10.96
2023-04-24T23:29:24.716Z,10.93
2023-04-24T23:32:31.198Z,10.88
2023-04-24T23:35:38.290Z,10.86
2023-04-24T23:38:50.113Z,10.82
2023-04-24T23:41:51.267Z,10.79
2023-04-24T23:44:51.565Z,10.72
2023-04-24T23:47:50.094Z,10.66
2023-04-24T23:50:55.862Z,10.61
2023-04-24T23:54:02.226Z,10.59
2023-04-24T23:57:07.643Z,10.54
